sensor_id;sensor_type;location;lat;lon;timestamp;P1;durP1;ratioP1;P2;durP2;ratioP2
46863;SDS011;32598;50.204;6.408;2022-09-12T00:01:32;20.20;;;13.48;;
46863;SDS011;32598;50.204;6.408;2022-09-12T00:03:58;20.67;;;13.77;;
46863;SDS011;32598;50.204;6.408;2022-09-12T00:06:25;20.75;;;14.52;;
46863;SDS011;32598;50.204;6.408;2022-09-12T00:08:52;23.83;;;16.55;;
46863;SDS011;32598;50.204;6.408;2022-09-12T00:11:18;22.00;;;16.75;;
46863;SDS011;32598;50.204;6.408;2022-09-12T00:13:43;21.08;;;15.15;;
46863;SDS011;32598;50.204;6.408;2022-09-12T00:16:15;21.25;;;15.90;;
46863;SDS011;32598;50.204;6.408;2022-09-12T00:18:40;29.95;;;19.58;;
46863;SDS011;32598;50.204;6.408;2022-09-12T00:21:06;32.05;;;22.52;;
46863;SDS011;32598;50.204;6.408;2022-09-12T00:23:31;29.80;;;21.37;;
46863;SDS011;32598;50.204;6.408;2022-09-12T00:25:57;30.15;;;20.70;;
46863;SDS011;32598;50.204;6.408;2022-09-12T00:28:22;35.33;;;23.30;;
46863;SDS011;32598;50.204;6.408;2022-09-12T00:30:47;33.10;;;21.87;;
46863;SDS011;32598;50.204;6.408;2022-09-12T00:33:13;35.67;;;24.05;;
46863;SDS011;32598;50.204;6.408;2022-09-12T00:35:46;39.65;;;24.25;;
46863;SDS011;32598;50.204;6.408;2022-09-12T00:38:12;30.17;;;20.70;;
46863;SDS011;32598;50.204;6.408;2022-09-12T00:40:38;32.40;;;21.98;;
46863;SDS011;32598;50.204;6.408;2022-09-12T00:43:03;26.48;;;17.65;;
46863;SDS011;32598;50.204;6.408;2022-09-12T00:45:29;23.33;;;17.00;;
46863;SDS011;32598;50.204;6.408;2022-09-12T00:47:55;25.92;;;16.15;;
46863;SDS011;32598;50.204;6.408;2022-09-12T00:50:22;21.48;;;14.05;;
46863;SDS011;32598;50.204;6.408;2022-09-12T00:52:51;22.13;;;15.40;;
46863;SDS011;32598;50.204;6.408;2022-09-12T00:55:25;21.13;;;13.98;;
46863;SDS011;32598;50.204;6.408;2022-09-12T01:00:18;24.27;;;17.42;;
46863;SDS011;32598;50.204;6.408;2022-09-12T01:02:44;27.85;;;17.85;;
46863;SDS011;32598;50.204;6.408;2022-09-12T01:05:11;26.27;;;17.13;;
46863;SDS011;32598;50.204;6.408;2022-09-12T01:07:37;23.63;;;16.73;;
46863;SDS011;32598;50.204;6.408;2022-09-12T01:10:03;25.10;;;16.52;;
46863;SDS011;32598;50.204;6.408;2022-09-12T01:12:29;22.52;;;14.73;;
46863;SDS011;32598;50.204;6.408;2022-09-12T01:14:55;24.73;;;15.60;;
46863;SDS011;32598;50.204;6.408;2022-09-12T01:17:20;26.80;;;19.47;;
46863;SDS011;32598;50.204;6.408;2022-09-12T01:20:12;25.50;;;18.40;;
46863;SDS011;32598;50.204;6.408;2022-09-12T01:23:02;25.92;;;18.83;;
46863;SDS011;32598;50.204;6.408;2022-09-12T01:30:53;33.38;;;21.73;;
46863;SDS011;32598;50.204;6.408;2022-09-12T01:35:55;26.15;;;17.52;;
46863;SDS011;32598;50.204;6.408;2022-09-12T01:43:42;24.30;;;17.77;;
46863;SDS011;32598;50.204;6.408;2022-09-12T01:48:50;27.60;;;17.48;;
46863;SDS011;32598;50.204;6.408;2022-09-12T01:51:22;26.98;;;19.15;;
46863;SDS011;32598;50.204;6.408;2022-09-12T01:53:51;28.55;;;17.17;;
46863;SDS011;32598;50.204;6.408;2022-09-12T01:56:23;31.88;;;17.25;;
46863;SDS011;32598;50.204;6.408;2022-09-12T01:58:58;25.85;;;18.10;;
46863;SDS011;32598;50.204;6.408;2022-09-12T02:01:26;26.20;;;17.35;;
46863;SDS011;32598;50.204;6.408;2022-09-12T02:04:04;28.92;;;18.65;;
46863;SDS011;32598;50.204;6.408;2022-09-12T02:06:37;29.08;;;18.38;;
46863;SDS011;32598;50.204;6.408;2022-09-12T02:09:05;32.25;;;17.80;;
46863;SDS011;32598;50.204;6.408;2022-09-12T02:11:33;26.60;;;18.45;;
46863;SDS011;32598;50.204;6.408;2022-09-12T02:16:31;29.98;;;17.95;;
46863;SDS011;32598;50.204;6.408;2022-09-12T02:19:17;29.73;;;18.40;;
46863;SDS011;32598;50.204;6.408;2022-09-12T02:21:44;28.02;;;19.38;;
46863;SDS011;32598;50.204;6.408;2022-09-12T02:24:11;27.20;;;18.80;;
46863;SDS011;32598;50.204;6.408;2022-09-12T02:26:43;31.75;;;19.10;;
46863;SDS011;32598;50.204;6.408;2022-09-12T02:29:10;29.38;;;19.20;;
46863;SDS011;32598;50.204;6.408;2022-09-12T02:31:39;29.48;;;19.83;;
46863;SDS011;32598;50.204;6.408;2022-09-12T02:34:12;31.05;;;19.95;;
46863;SDS011;32598;50.204;6.408;2022-09-12T02:36:45;25.08;;;17.55;;
46863;SDS011;32598;50.204;6.408;2022-09-12T02:39:14;30.75;;;18.38;;
46863;SDS011;32598;50.204;6.408;2022-09-12T02:41:43;32.45;;;20.20;;
46863;SDS011;32598;50.204;6.408;2022-09-12T02:44:09;30.73;;;19.13;;
46863;SDS011;32598;50.204;6.408;2022-09-12T02:46:38;29.37;;;18.93;;
46863;SDS011;32598;50.204;6.408;2022-09-12T02:49:04;30.75;;;19.95;;
46863;SDS011;32598;50.204;6.408;2022-09-12T02:51:30;28.00;;;19.35;;
46863;SDS011;32598;50.204;6.408;2022-09-12T02:53:55;35.05;;;20.30;;
46863;SDS011;32598;50.204;6.408;2022-09-12T02:56:25;31.63;;;20.83;;
46863;SDS011;32598;50.204;6.408;2022-09-12T02:58:51;25.48;;;18.33;;
46863;SDS011;32598;50.204;6.408;2022-09-12T03:11:29;27.35;;;19.00;;
46863;SDS011;32598;50.204;6.408;2022-09-12T03:16:26;29.55;;;19.95;;
46863;SDS011;32598;50.204;6.408;2022-09-12T03:18:58;31.95;;;21.25;;
46863;SDS011;32598;50.204;6.408;2022-09-12T03:21:28;34.20;;;21.90;;
46863;SDS011;32598;50.204;6.408;2022-09-12T03:24:04;30.08;;;20.33;;
46863;SDS011;32598;50.204;6.408;2022-09-12T03:26:53;30.20;;;20.13;;
46863;SDS011;32598;50.204;6.408;2022-09-12T03:29:19;36.65;;;23.45;;
46863;SDS011;32598;50.204;6.408;2022-09-12T03:31:48;32.65;;;21.40;;
46863;SDS011;32598;50.204;6.408;2022-09-12T03:34:14;27.95;;;19.85;;
46863;SDS011;32598;50.204;6.408;2022-09-12T03:36:39;33.25;;;22.65;;
46863;SDS011;32598;50.204;6.408;2022-09-12T03:39:05;30.95;;;20.17;;
46863;SDS011;32598;50.204;6.408;2022-09-12T03:41:30;33.38;;;20.75;;
46863;SDS011;32598;50.204;6.408;2022-09-12T03:43:55;35.57;;;22.27;;
46863;SDS011;32598;50.204;6.408;2022-09-12T03:46:21;34.22;;;21.67;;
46863;SDS011;32598;50.204;6.408;2022-09-12T03:48:46;31.30;;;20.58;;
46863;SDS011;32598;50.204;6.408;2022-09-12T03:51:11;30.00;;;20.47;;
46863;SDS011;32598;50.204;6.408;2022-09-12T03:53:36;28.37;;;20.27;;
46863;SDS011;32598;50.204;6.408;2022-09-12T03:56:05;34.28;;;20.40;;
46863;SDS011;32598;50.204;6.408;2022-09-12T03:58:31;29.52;;;20.08;;
46863;SDS011;32598;50.204;6.408;2022-09-12T04:00:57;33.28;;;20.02;;
46863;SDS011;32598;50.204;6.408;2022-09-12T04:03:23;30.00;;;20.23;;
46863;SDS011;32598;50.204;6.408;2022-09-12T04:05:48;29.08;;;18.67;;
46863;SDS011;32598;50.204;6.408;2022-09-12T04:08:13;36.87;;;18.90;;
46863;SDS011;32598;50.204;6.408;2022-09-12T04:10:38;27.75;;;18.65;;
46863;SDS011;32598;50.204;6.408;2022-09-12T04:13:04;31.27;;;20.23;;
46863;SDS011;32598;50.204;6.408;2022-09-12T04:15:29;26.70;;;18.45;;
46863;SDS011;32598;50.204;6.408;2022-09-12T04:17:54;26.38;;;18.00;;
46863;SDS011;32598;50.204;6.408;2022-09-12T04:20:19;26.63;;;19.10;;
46863;SDS011;32598;50.204;6.408;2022-09-12T04:22:45;27.70;;;18.27;;
46863;SDS011;32598;50.204;6.408;2022-09-12T04:25:10;30.77;;;20.15;;
46863;SDS011;32598;50.204;6.408;2022-09-12T04:27:35;28.25;;;20.02;;
46863;SDS011;32598;50.204;6.408;2022-09-12T04:30:01;31.17;;;19.73;;
46863;SDS011;32598;50.204;6.408;2022-09-12T04:32:28;29.60;;;20.45;;
46863;SDS011;32598;50.204;6.408;2022-09-12T04:34:53;32.70;;;20.88;;
46863;SDS011;32598;50.204;6.408;2022-09-12T04:37:18;28.08;;;18.67;;
46863;SDS011;32598;50.204;6.408;2022-09-12T04:39:43;29.63;;;19.40;;
46863;SDS011;32598;50.204;6.408;2022-09-12T04:42:09;27.20;;;18.67;;
46863;SDS011;32598;50.204;6.408;2022-09-12T04:44:34;29.47;;;19.27;;
46863;SDS011;32598;50.204;6.408;2022-09-12T04:46:59;29.95;;;19.70;;
46863;SDS011;32598;50.204;6.408;2022-09-12T04:49:24;27.77;;;19.07;;
46863;SDS011;32598;50.204;6.408;2022-09-12T04:51:51;32.03;;;19.83;;
46863;SDS011;32598;50.204;6.408;2022-09-12T04:54:17;33.88;;;20.38;;
46863;SDS011;32598;50.204;6.408;2022-09-12T04:56:43;29.70;;;20.50;;
46863;SDS011;32598;50.204;6.408;2022-09-12T04:59:09;29.42;;;20.27;;
46863;SDS011;32598;50.204;6.408;2022-09-12T05:01:34;29.38;;;18.98;;
46863;SDS011;32598;50.204;6.408;2022-09-12T05:04:00;28.65;;;18.80;;
46863;SDS011;32598;50.204;6.408;2022-09-12T05:06:27;28.67;;;18.85;;
46863;SDS011;32598;50.204;6.408;2022-09-12T05:08:52;27.42;;;17.92;;
46863;SDS011;32598;50.204;6.408;2022-09-12T05:11:19;27.05;;;17.95;;
46863;SDS011;32598;50.204;6.408;2022-09-12T05:13:45;28.25;;;19.50;;
46863;SDS011;32598;50.204;6.408;2022-09-12T05:16:11;29.38;;;18.80;;
46863;SDS011;32598;50.204;6.408;2022-09-12T05:18:36;27.42;;;18.83;;
46863;SDS011;32598;50.204;6.408;2022-09-12T05:21:03;23.95;;;17.05;;
46863;SDS011;32598;50.204;6.408;2022-09-12T05:23:29;28.38;;;18.55;;
46863;SDS011;32598;50.204;6.408;2022-09-12T05:25:55;26.27;;;17.92;;
46863;SDS011;32598;50.204;6.408;2022-09-12T05:28:22;26.45;;;18.55;;
46863;SDS011;32598;50.204;6.408;2022-09-12T05:30:47;25.27;;;18.27;;
46863;SDS011;32598;50.204;6.408;2022-09-12T05:33:13;26.50;;;17.53;;
46863;SDS011;32598;50.204;6.408;2022-09-12T05:35:38;25.75;;;16.88;;
46863;SDS011;32598;50.204;6.408;2022-09-12T05:38:04;30.77;;;18.38;;
46863;SDS011;32598;50.204;6.408;2022-09-12T05:40:30;26.27;;;17.15;;
46863;SDS011;32598;50.204;6.408;2022-09-12T05:42:55;28.58;;;17.17;;
46863;SDS011;32598;50.204;6.408;2022-09-12T05:45:21;27.98;;;17.25;;
46863;SDS011;32598;50.204;6.408;2022-09-12T05:47:46;25.80;;;16.53;;
46863;SDS011;32598;50.204;6.408;2022-09-12T05:50:11;24.73;;;16.13;;
46863;SDS011;32598;50.204;6.408;2022-09-12T05:52:37;24.77;;;16.05;;
46863;SDS011;32598;50.204;6.408;2022-09-12T05:55:02;22.03;;;15.63;;
46863;SDS011;32598;50.204;6.408;2022-09-12T05:57:27;21.67;;;15.38;;
46863;SDS011;32598;50.204;6.408;2022-09-12T05:59:53;22.58;;;16.27;;
46863;SDS011;32598;50.204;6.408;2022-09-12T06:02:18;26.30;;;16.60;;
46863;SDS011;32598;50.204;6.408;2022-09-12T06:04:43;22.80;;;15.50;;
46863;SDS011;32598;50.204;6.408;2022-09-12T06:07:09;22.63;;;15.57;;
46863;SDS011;32598;50.204;6.408;2022-09-12T06:09:35;23.63;;;15.80;;
46863;SDS011;32598;50.204;6.408;2022-09-12T06:12:00;23.58;;;16.13;;
46863;SDS011;32598;50.204;6.408;2022-09-12T06:14:25;23.27;;;15.43;;
46863;SDS011;32598;50.204;6.408;2022-09-12T06:16:51;25.92;;;16.00;;
46863;SDS011;32598;50.204;6.408;2022-09-12T06:19:17;24.63;;;16.13;;
46863;SDS011;32598;50.204;6.408;2022-09-12T06:21:43;20.80;;;14.90;;
46863;SDS011;32598;50.204;6.408;2022-09-12T06:24:08;23.60;;;16.83;;
46863;SDS011;32598;50.204;6.408;2022-09-12T06:26:33;23.02;;;15.50;;
46863;SDS011;32598;50.204;6.408;2022-09-12T06:28:59;23.60;;;15.43;;
46863;SDS011;32598;50.204;6.408;2022-09-12T06:31:27;21.33;;;14.40;;
46863;SDS011;32598;50.204;6.408;2022-09-12T06:33:53;20.50;;;14.73;;
46863;SDS011;32598;50.204;6.408;2022-09-12T06:36:22;21.23;;;14.52;;
46863;SDS011;32598;50.204;6.408;2022-09-12T06:38:52;21.38;;;14.32;;
46863;SDS011;32598;50.204;6.408;2022-09-12T06:41:17;18.05;;;12.88;;
46863;SDS011;32598;50.204;6.408;2022-09-12T06:43:43;17.67;;;11.43;;
46863;SDS011;32598;50.204;6.408;2022-09-12T06:46:08;15.43;;;10.95;;
46863;SDS011;32598;50.204;6.408;2022-09-12T06:48:34;16.33;;;11.18;;
46863;SDS011;32598;50.204;6.408;2022-09-12T06:51:03;18.42;;;11.93;;
46863;SDS011;32598;50.204;6.408;2022-09-12T06:53:29;19.77;;;11.80;;
46863;SDS011;32598;50.204;6.408;2022-09-12T06:55:58;17.88;;;11.43;;
46863;SDS011;32598;50.204;6.408;2022-09-12T06:58:24;18.05;;;11.10;;
46863;SDS011;32598;50.204;6.408;2022-09-12T07:00:49;18.20;;;11.33;;
46863;SDS011;32598;50.204;6.408;2022-09-12T07:03:14;16.35;;;10.85;;
46863;SDS011;32598;50.204;6.408;2022-09-12T07:05:40;19.67;;;10.93;;
46863;SDS011;32598;50.204;6.408;2022-09-12T07:08:05;16.23;;;10.93;;
46863;SDS011;32598;50.204;6.408;2022-09-12T07:10:30;19.70;;;10.80;;
46863;SDS011;32598;50.204;6.408;2022-09-12T07:12:56;17.37;;;10.20;;
46863;SDS011;32598;50.204;6.408;2022-09-12T07:15:21;14.97;;;9.73;;
46863;SDS011;32598;50.204;6.408;2022-09-12T07:17:46;15.57;;;9.60;;
46863;SDS011;32598;50.204;6.408;2022-09-12T07:20:11;15.83;;;9.80;;
46863;SDS011;32598;50.204;6.408;2022-09-12T07:22:36;13.80;;;9.87;;
46863;SDS011;32598;50.204;6.408;2022-09-12T07:25:01;14.93;;;10.20;;
46863;SDS011;32598;50.204;6.408;2022-09-12T07:27:27;18.33;;;10.93;;
46863;SDS011;32598;50.204;6.408;2022-09-12T07:29:52;17.60;;;10.27;;
46863;SDS011;32598;50.204;6.408;2022-09-12T07:32:17;17.47;;;10.37;;
46863;SDS011;32598;50.204;6.408;2022-09-12T07:34:43;15.40;;;9.60;;
46863;SDS011;32598;50.204;6.408;2022-09-12T07:37:09;14.00;;;10.07;;
46863;SDS011;32598;50.204;6.408;2022-09-12T07:39:34;14.53;;;10.53;;
46863;SDS011;32598;50.204;6.408;2022-09-12T07:41:59;13.73;;;9.17;;
46863;SDS011;32598;50.204;6.408;2022-09-12T07:44:24;16.67;;;9.77;;
46863;SDS011;32598;50.204;6.408;2022-09-12T07:46:50;14.55;;;8.80;;
46863;SDS011;32598;50.204;6.408;2022-09-12T07:49:16;13.88;;;9.05;;
46863;SDS011;32598;50.204;6.408;2022-09-12T07:51:41;12.25;;;8.27;;
46863;SDS011;32598;50.204;6.408;2022-09-12T07:54:07;13.93;;;8.30;;
46863;SDS011;32598;50.204;6.408;2022-09-12T07:56:33;11.38;;;7.72;;
46863;SDS011;32598;50.204;6.408;2022-09-12T07:58:58;11.40;;;7.85;;
46863;SDS011;32598;50.204;6.408;2022-09-12T08:01:23;12.33;;;7.60;;
46863;SDS011;32598;50.204;6.408;2022-09-12T08:03:51;13.63;;;7.97;;
46863;SDS011;32598;50.204;6.408;2022-09-12T08:06:18;12.77;;;8.07;;
46863;SDS011;32598;50.204;6.408;2022-09-12T08:08:50;11.80;;;7.68;;
46863;SDS011;32598;50.204;6.408;2022-09-12T08:11:16;12.98;;;8.15;;
46863;SDS011;32598;50.204;6.408;2022-09-12T08:13:42;12.02;;;7.95;;
46863;SDS011;32598;50.204;6.408;2022-09-12T08:16:09;11.05;;;8.07;;
46863;SDS011;32598;50.204;6.408;2022-09-12T08:18:36;17.33;;;8.68;;
46863;SDS011;32598;50.204;6.408;2022-09-12T08:21:04;12.57;;;8.48;;
46863;SDS011;32598;50.204;6.408;2022-09-12T08:23:30;14.90;;;7.85;;
46863;SDS011;32598;50.204;6.408;2022-09-12T08:25:56;13.13;;;8.05;;
46863;SDS011;32598;50.204;6.408;2022-09-12T08:28:22;10.52;;;7.15;;
46863;SDS011;32598;50.204;6.408;2022-09-12T08:30:48;13.15;;;7.43;;
46863;SDS011;32598;50.204;6.408;2022-09-12T08:33:13;11.52;;;7.95;;
46863;SDS011;32598;50.204;6.408;2022-09-12T08:35:39;10.13;;;6.90;;
46863;SDS011;32598;50.204;6.408;2022-09-12T08:38:04;13.13;;;6.85;;
46863;SDS011;32598;50.204;6.408;2022-09-12T08:40:29;10.90;;;6.23;;
46863;SDS011;32598;50.204;6.408;2022-09-12T08:43:02;11.20;;;7.40;;
46863;SDS011;32598;50.204;6.408;2022-09-12T08:45:35;9.88;;;5.95;;
46863;SDS011;32598;50.204;6.408;2022-09-12T08:48:02;9.23;;;5.43;;
46863;SDS011;32598;50.204;6.408;2022-09-12T08:50:29;8.18;;;5.68;;
46863;SDS011;32598;50.204;6.408;2022-09-12T08:52:56;9.32;;;5.80;;
46863;SDS011;32598;50.204;6.408;2022-09-12T08:58:13;12.77;;;5.45;;
46863;SDS011;32598;50.204;6.408;2022-09-12T09:05:53;10.50;;;5.50;;
46863;SDS011;32598;50.204;6.408;2022-09-12T09:16:32;10.13;;;5.30;;
46863;SDS011;32598;50.204;6.408;2022-09-12T09:19:00;8.02;;;4.75;;
46863;SDS011;32598;50.204;6.408;2022-09-12T09:22:27;12.18;;;5.30;;
46863;SDS011;32598;50.204;6.408;2022-09-12T09:24:23;7.57;;;4.90;;
46863;SDS011;32598;50.204;6.408;2022-09-12T09:29:42;7.70;;;4.40;;
46863;SDS011;32598;50.204;6.408;2022-09-12T09:32:11;7.28;;;4.30;;
46863;SDS011;32598;50.204;6.408;2022-09-12T09:34:38;6.72;;;3.95;;
46863;SDS011;32598;50.204;6.408;2022-09-12T09:37:12;8.88;;;4.38;;
46863;SDS011;32598;50.204;6.408;2022-09-12T09:39:58;7.43;;;3.80;;
46863;SDS011;32598;50.204;6.408;2022-09-12T09:42:28;6.18;;;3.80;;
46863;SDS011;32598;50.204;6.408;2022-09-12T09:44:55;10.10;;;4.25;;
46863;SDS011;32598;50.204;6.408;2022-09-12T09:47:21;6.22;;;4.10;;
46863;SDS011;32598;50.204;6.408;2022-09-12T09:49:46;6.10;;;3.60;;
46863;SDS011;32598;50.204;6.408;2022-09-12T09:52:13;7.83;;;3.17;;
46863;SDS011;32598;50.204;6.408;2022-09-12T09:54:43;5.63;;;2.97;;
46863;SDS011;32598;50.204;6.408;2022-09-12T09:59:54;6.28;;;3.30;;
46863;SDS011;32598;50.204;6.408;2022-09-12T10:02:20;5.80;;;3.00;;
46863;SDS011;32598;50.204;6.408;2022-09-12T10:04:56;5.97;;;2.95;;
46863;SDS011;32598;50.204;6.408;2022-09-12T10:07:22;7.35;;;3.22;;
46863;SDS011;32598;50.204;6.408;2022-09-12T10:14:58;5.05;;;2.65;;
46863;SDS011;32598;50.204;6.408;2022-09-12T10:17:28;5.35;;;2.65;;
46863;SDS011;32598;50.204;6.408;2022-09-12T10:19:55;6.30;;;2.60;;
46863;SDS011;32598;50.204;6.408;2022-09-12T10:22:22;6.63;;;2.35;;
46863;SDS011;32598;50.204;6.408;2022-09-12T10:24:52;6.55;;;3.15;;
46863;SDS011;32598;50.204;6.408;2022-09-12T10:27:19;4.97;;;2.33;;
46863;SDS011;32598;50.204;6.408;2022-09-12T10:29:52;6.72;;;2.65;;
46863;SDS011;32598;50.204;6.408;2022-09-12T10:32:29;5.53;;;2.25;;
46863;SDS011;32598;50.204;6.408;2022-09-12T10:34:59;4.75;;;2.05;;
46863;SDS011;32598;50.204;6.408;2022-09-12T10:37:30;4.00;;;1.80;;
46863;SDS011;32598;50.204;6.408;2022-09-12T10:39:57;4.68;;;2.13;;
46863;SDS011;32598;50.204;6.408;2022-09-12T10:45:16;3.95;;;1.85;;
46863;SDS011;32598;50.204;6.408;2022-09-12T10:47:42;3.42;;;1.83;;
46863;SDS011;32598;50.204;6.408;2022-09-12T10:52:51;5.90;;;2.60;;
46863;SDS011;32598;50.204;6.408;2022-09-12T10:55:16;6.65;;;2.17;;
46863;SDS011;32598;50.204;6.408;2022-09-12T10:57:59;5.38;;;2.22;;
46863;SDS011;32598;50.204;6.408;2022-09-12T11:00:27;4.68;;;2.08;;
46863;SDS011;32598;50.204;6.408;2022-09-12T11:05:50;7.00;;;2.72;;
46863;SDS011;32598;50.204;6.408;2022-09-12T11:18:22;5.10;;;2.17;;
46863;SDS011;32598;50.204;6.408;2022-09-12T11:25:49;6.47;;;3.03;;
46863;SDS011;32598;50.204;6.408;2022-09-12T11:33:40;7.45;;;2.20;;
46863;SDS011;32598;50.204;6.408;2022-09-12T11:36:10;7.68;;;2.40;;
46863;SDS011;32598;50.204;6.408;2022-09-12T11:38:56;7.57;;;2.83;;
46863;SDS011;32598;50.204;6.408;2022-09-12T11:41:25;4.15;;;2.03;;
46863;SDS011;32598;50.204;6.408;2022-09-12T11:46:39;6.30;;;2.58;;
46863;SDS011;32598;50.204;6.408;2022-09-12T11:57:10;7.70;;;2.70;;
46863;SDS011;32598;50.204;6.408;2022-09-12T11:59:43;5.68;;;2.70;;
46863;SDS011;32598;50.204;6.408;2022-09-12T12:02:10;7.07;;;2.70;;
46863;SDS011;32598;50.204;6.408;2022-09-12T12:04:38;9.00;;;3.00;;
46863;SDS011;32598;50.204;6.408;2022-09-12T12:07:06;6.05;;;2.35;;
46863;SDS011;32598;50.204;6.408;2022-09-12T12:09:32;6.50;;;2.50;;
46863;SDS011;32598;50.204;6.408;2022-09-12T12:11:57;4.43;;;2.25;;
46863;SDS011;32598;50.204;6.408;2022-09-12T12:14:26;4.85;;;2.40;;
46863;SDS011;32598;50.204;6.408;2022-09-12T12:16:52;4.18;;;1.90;;
46863;SDS011;32598;50.204;6.408;2022-09-12T12:21:44;6.67;;;2.00;;
46863;SDS011;32598;50.204;6.408;2022-09-12T12:24:11;6.10;;;1.70;;
46863;SDS011;32598;50.204;6.408;2022-09-12T12:29:02;4.57;;;1.80;;
46863;SDS011;32598;50.204;6.408;2022-09-12T12:31:27;4.93;;;2.00;;
46863;SDS011;32598;50.204;6.408;2022-09-12T12:33:53;4.33;;;1.90;;
46863;SDS011;32598;50.204;6.408;2022-09-12T12:36:35;4.57;;;1.88;;
46863;SDS011;32598;50.204;6.408;2022-09-12T12:41:45;4.22;;;1.70;;
46863;SDS011;32598;50.204;6.408;2022-09-12T12:47:13;4.70;;;1.50;;
46863;SDS011;32598;50.204;6.408;2022-09-12T12:49:40;3.05;;;1.40;;
46863;SDS011;32598;50.204;6.408;2022-09-12T12:52:13;3.25;;;1.48;;
46863;SDS011;32598;50.204;6.408;2022-09-12T12:57:14;3.30;;;1.60;;
46863;SDS011;32598;50.204;6.408;2022-09-12T12:59:45;3.75;;;1.80;;
46863;SDS011;32598;50.204;6.408;2022-09-12T13:02:19;4.15;;;1.58;;
46863;SDS011;32598;50.204;6.408;2022-09-12T13:04:45;4.20;;;1.58;;
46863;SDS011;32598;50.204;6.408;2022-09-12T13:07:12;4.68;;;1.63;;
46863;SDS011;32598;50.204;6.408;2022-09-12T13:09:45;3.33;;;1.25;;
46863;SDS011;32598;50.204;6.408;2022-09-12T13:12:16;5.38;;;1.10;;
46863;SDS011;32598;50.204;6.408;2022-09-12T13:17:43;2.72;;;1.10;;
46863;SDS011;32598;50.204;6.408;2022-09-12T13:20:07;4.53;;;1.40;;
46863;SDS011;32598;50.204;6.408;2022-09-12T13:22:42;4.00;;;1.35;;
46863;SDS011;32598;50.204;6.408;2022-09-12T13:30:34;3.35;;;1.15;;
46863;SDS011;32598;50.204;6.408;2022-09-12T13:38:27;4.93;;;1.50;;
46863;SDS011;32598;50.204;6.408;2022-09-12T13:43:57;3.63;;;1.30;;
46863;SDS011;32598;50.204;6.408;2022-09-12T13:46:26;5.97;;;1.65;;
46863;SDS011;32598;50.204;6.408;2022-09-12T13:48:54;4.20;;;1.50;;
46863;SDS011;32598;50.204;6.408;2022-09-12T13:51:23;3.58;;;1.30;;
46863;SDS011;32598;50.204;6.408;2022-09-12T13:53:49;4.05;;;1.35;;
46863;SDS011;32598;50.204;6.408;2022-09-12T13:56:18;2.67;;;1.08;;
46863;SDS011;32598;50.204;6.408;2022-09-12T13:58:54;4.13;;;1.30;;
46863;SDS011;32598;50.204;6.408;2022-09-12T14:01:21;3.17;;;1.23;;
46863;SDS011;32598;50.204;6.408;2022-09-12T14:06:47;3.10;;;1.00;;
46863;SDS011;32598;50.204;6.408;2022-09-12T14:09:15;3.40;;;1.50;;
46863;SDS011;32598;50.204;6.408;2022-09-12T14:11:41;5.47;;;1.58;;
46863;SDS011;32598;50.204;6.408;2022-09-12T14:14:13;5.77;;;1.37;;
46863;SDS011;32598;50.204;6.408;2022-09-12T14:16:42;3.95;;;1.38;;
46863;SDS011;32598;50.204;6.408;2022-09-12T14:19:08;3.45;;;1.20;;
46863;SDS011;32598;50.204;6.408;2022-09-12T14:21:34;2.75;;;1.30;;
46863;SDS011;32598;50.204;6.408;2022-09-12T14:24:00;3.25;;;1.35;;
46863;SDS011;32598;50.204;6.408;2022-09-12T14:26:26;5.18;;;1.42;;
46863;SDS011;32598;50.204;6.408;2022-09-12T14:28:52;3.95;;;1.75;;
